Time;durP1;ratioP1;P1;durP2;ratioP2;P2;SDS_P1;SDS_P2;PMS_P1;PMS_P2;Temp;Humidity;BMP_temperature;BMP_pressure;BME280_temperature;BME280_humidity;BME280_pressure;Samples;Min_cycle;Max_cycle;Signal;HPM_P1;HPM_P2
2023/08/31 00:00:43;;;;;;;21.88;10.18;;;;;;;13.21;74.61;99930.34;4948572;28;20169;-79
2023/08/31 00:03:13;;;;;;;18.77;10.48;;;;;;;13.03;75.14;99897.56;4973301;28;20039;-78
2023/08/31 00:05:43;;;;;;;19.50;10.98;;;;;;;13.02;74.94;99897.59;4938972;28;20046;-78
2023/08/31 00:08:11;;;;;;;21.08;11.00;;;;;;;13.14;74.80;99928.72;4970839;28;20039;-79
2023/08/31 00:10:39;;;;;;;16.20;10.35;;;;;;;13.19;75.31;99932.13;4972906;28;20054;-80
2023/08/31 00:13:09;;;;;;;17.83;11.13;;;;;;;13.01;74.96;99899.38;4973251;28;20039;-84
2023/08/31 00:15:36;;;;;;;21.83;10.45;;;;;;;13.28;75.41;99932.88;4990985;28;20050;-85
2023/08/31 00:18:06;;;;;;;20.63;10.23;;;;;;;12.99;75.15;99880.25;4971848;28;20206;-83
2023/08/31 00:20:33;;;;;;;21.60;10.88;;;;;;;13.09;75.35;99909.69;4943112;28;20043;-85
2023/08/31 00:23:00;;;;;;;22.90;11.85;;;;;;;13.16;75.06;99926.09;4986027;28;20137;-82
2023/08/31 00:25:26;;;;;;;24.50;11.50;;;;;;;13.22;75.58;99939.91;4974541;28;20081;-85
2023/08/31 00:27:54;;;;;;;20.40;11.20;;;;;;;13.26;75.63;99938.97;4974329;28;20580;-86
2023/08/31 00:30:21;;;;;;;17.23;10.98;;;;;;;13.06;75.60;99891.44;4962872;28;20070;-83
2023/08/31 00:32:50;;;;;;;17.35;10.48;;;;;;;13.22;75.53;99905.94;4978369;28;20417;-85
2023/08/31 00:35:19;;;;;;;18.20;10.38;;;;;;;13.37;75.61;99910.03;4991065;28;20081;-79
2023/08/31 00:37:45;;;;;;;24.20;10.88;;;;;;;13.35;75.59;99892.66;4970975;28;20050;-78
2023/08/31 00:40:14;;;;;;;21.65;10.90;;;;;;;13.45;75.34;99899.47;4975700;28;20069;-79
2023/08/31 00:42:40;;;;;;;23.63;9.45;;;;;;;13.56;75.34;99901.88;4983464;28;20074;-80
2023/08/31 00:45:07;;;;;;;21.65;10.38;;;;;;;13.65;75.24;99896.47;4971632;28;20045;-78
2023/08/31 00:47:34;;;;;;;23.38;10.27;;;;;;;13.71;75.40;99890.25;4972390;28;20537;-80
2023/08/31 00:50:03;;;;;;;15.13;10.18;;;;;;;13.97;74.83;99934.16;4951965;28;20041;-81
2023/08/31 00:52:31;;;;;;;18.10;10.60;;;;;;;13.80;74.64;99910.13;4939086;28;20051;-80
2023/08/31 00:54:57;;;;;;;17.25;9.35;;;;;;;13.92;74.89;99932.53;4966822;28;20046;-80
2023/08/31 00:57:26;;;;;;;19.20;11.15;;;;;;;13.43;74.75;99856.81;4957180;28;20043;-85
2023/08/31 00:59:56;;;;;;;16.38;9.57;;;;;;;13.61;74.78;99893.94;4971366;28;20038;-81
2023/08/31 01:02:34;;;;;;;18.42;11.55;;;;;;;13.60;74.45;99907.88;4934537;28;20050;-78
2023/08/31 01:05:18;;;;;;;20.45;11.35;;;;;;;13.68;74.78;99934.75;4964553;28;20039;-78
2023/08/31 01:08:30;;;;;;;19.50;12.27;;;;;;;13.39;74.82;99891.69;4970074;28;20140;-76
2023/08/31 01:11:17;;;;;;;18.20;12.88;;;;;;;13.23;74.59;99871.09;4970442;28;20126;-78
2023/08/31 01:14:05;;;;;;;22.05;13.85;;;;;;;13.40;74.80;99906.50;4967968;28;20039;-78
2023/08/31 01:16:33;;;;;;;19.90;13.50;;;;;;;13.18;74.45;99875.53;4937407;28;20042;-77
2023/08/31 01:19:05;;;;;;;22.08;13.43;;;;;;;13.31;75.10;99896.22;4971920;28;20050;-75
2023/08/31 01:21:37;;;;;;;;;;;;;;;13.55;75.21;99935.00;4974862;28;20197;-77
2023/08/31 01:24:04;;;;;;;21.23;13.40;;;;;;;13.17;75.18;99867.72;4957282;28;19922;-77
2023/08/31 01:26:32;;;;;;;16.88;12.13;;;;;;;13.31;75.07;99897.06;4955826;28;20054;-80
2023/08/31 01:28:59;;;;;;;20.88;13.07;;;;;;;13.28;74.90;99902.34;4989968;28;20077;-78
2023/08/31 01:31:26;;;;;;;19.73;12.80;;;;;;;13.49;75.30;99937.72;4941598;28;20039;-76
2023/08/31 01:33:53;;;;;;;15.18;10.13;;;;;;;13.53;75.39;99936.78;4972333;28;20554;-76
2023/08/31 01:36:29;;;;;;;19.38;12.68;;;;;;;13.09;75.24;99867.88;4989761;28;21476;-79
2023/08/31 01:39:04;;;;;;;19.92;13.13;;;;;;;13.15;75.17;99875.59;4987738;28;20035;-79
2023/08/31 01:41:34;;;;;;;15.85;10.80;;;;;;;13.16;74.95;99895.59;4949300;28;20042;-75
2023/08/31 01:44:02;;;;;;;;;;;;;;;13.45;75.28;99929.97;4974870;28;20097;-77
2023/08/31 01:46:29;;;;;;;18.02;10.15;;;;;;;13.36;75.54;99924.00;4973283;28;19941;-76
2023/08/31 01:48:58;;;;;;;28.50;12.10;;;;;;;13.12;74.71;99888.72;4972886;28;20077;-76
2023/08/31 01:51:29;;;;;;;22.70;13.30;;;;;;;12.99;74.96;99890.69;4973584;28;20590;-80
2023/08/31 01:53:58;;;;;;;28.00;14.90;;;;;;;12.95;75.20;99887.25;4977917;28;20505;-79
2023/08/31 01:56:25;;;;;;;23.25;13.38;;;;;;;13.13;75.24;99924.38;4939659;28;20053;-79
2023/08/31 01:58:54;;;;;;;19.92;13.05;;;;;;;13.17;75.25;99931.28;4957865;28;20039;-78
2023/08/31 02:01:24;;;;;;;21.83;13.30;;;;;;;12.95;75.52;99889.03;4959310;28;20042;-86
2023/08/31 02:03:50;;;;;;;24.20;13.30;;;;;;;13.04;75.22;99920.19;4954668;28;20186;-78
2023/08/31 02:06:17;;;;;;;23.65;13.73;;;;;;;12.99;75.63;99892.44;4940636;28;20050;-76
2023/08/31 02:08:47;;;;;;;28.58;17.77;;;;;;;12.97;75.56;99902.91;4987262;28;20039;-76
2023/08/31 02:11:13;;;;;;;28.40;17.63;;;;;;;12.97;75.55;99895.09;4988187;28;20030;-76
2023/08/31 02:13:40;;;;;;;25.60;15.75;;;;;;;13.06;75.53;99923.63;4956614;28;20138;-74
2023/08/31 02:16:07;;;;;;;28.23;16.38;;;;;;;13.10;75.92;99945.38;4983830;28;20513;-74
2023/08/31 02:18:36;;;;;;;24.90;15.43;;;;;;;12.84;75.91;99901.38;4939008;28;20428;-74
2023/08/31 02:21:04;;;;;;;28.13;16.30;;;;;;;12.78;76.13;99891.91;4970716;28;20043;-75
2023/08/31 02:23:30;;;;;;;27.13;16.10;;;;;;;13.01;75.43;99935.94;4972664;28;20592;-72
2023/08/31 02:25:59;;;;;;;31.90;15.60;;;;;;;12.99;76.29;99939.44;4950723;28;20065;-72
2023/08/31 02:28:25;;;;;;;29.30;16.63;;;;;;;12.57;76.15;99867.88;4964851;28;20501;-73
2023/08/31 02:31:02;;;;;;;27.17;15.73;;;;;;;12.88;76.38;99913.50;4955307;28;20104;-73
2023/08/31 02:33:30;;;;;;;23.33;13.32;;;;;;;12.78;76.40;99910.19;4986528;28;20532;-74
2023/08/31 02:35:57;;;;;;;28.48;14.45;;;;;;;12.87;76.35;99928.31;4966903;28;20043;-78
2023/08/31 02:38:24;;;;;;;22.92;14.07;;;;;;;12.63;76.50;99893.00;4948187;28;20129;-76
2023/08/31 02:40:50;;;;;;;21.75;13.85;;;;;;;12.69;76.56;99905.13;4955518;28;20039;-77
2023/08/31 02:43:16;;;;;;;19.48;13.23;;;;;;;12.77;76.58;99913.69;4966904;28;20046;-77
2023/08/31 02:45:42;;;;;;;19.42;12.65;;;;;;;12.69;76.84;99885.09;4954466;28;20043;-76
2023/08/31 02:48:11;;;;;;;21.33;12.70;;;;;;;12.89;76.41;99907.41;4962899;28;20049;-79
2023/08/31 02:50:38;;;;;;;23.15;13.65;;;;;;;12.81;76.68;99908.38;4967696;28;20070;-81
2023/08/31 02:53:05;;;;;;;25.75;13.20;;;;;;;12.96;76.78;99936.00;4972251;28;20148;-78
2023/08/31 02:55:34;;;;;;;22.27;12.38;;;;;;;13.00;77.11;99943.78;4982993;28;20513;-78
2023/08/31 02:58:00;;;;;;;20.80;12.70;;;;;;;12.81;76.95;99918.81;4953991;28;20046;-76
2023/08/31 03:00:28;;;;;;;22.15;12.85;;;;;;;12.87;76.78;99923.09;4954109;28;20058;-77
2023/08/31 03:02:54;;;;;;;21.20;12.65;;;;;;;12.88;77.02;99903.06;4956185;28;20030;-76
2023/08/31 03:05:21;;;;;;;21.10;12.63;;;;;;;12.98;76.94;99909.00;4954463;28;20536;-74
2023/08/31 03:07:47;;;;;;;19.23;12.55;;;;;;;13.04;77.24;99914.13;4970116;28;20396;-75
2023/08/31 03:10:13;;;;;;;18.23;11.93;;;;;;;13.13;77.09;99921.78;4964999;28;20042;-75
2023/08/31 03:12:42;;;;;;;20.42;12.15;;;;;;;13.13;76.52;99919.16;4963010;28;20043;-71
2023/08/31 03:15:09;;;;;;;19.52;11.63;;;;;;;13.33;77.23;99934.50;4970540;28;20087;-73
2023/08/31 03:17:35;;;;;;;27.83;12.57;;;;;;;13.28;76.69;99927.63;4968162;28;20128;-74
2023/08/31 03:20:03;;;;;;;21.35;13.23;;;;;;;12.85;76.81;99851.75;4953006;28;20042;-75
2023/08/31 03:22:30;;;;;;;21.63;12.25;;;;;;;13.37;76.67;99911.78;4970224;28;20042;-75
2023/08/31 03:24:56;;;;;;;22.20;12.25;;;;;;;13.09;76.49;99876.56;4946978;28;20046;-75
2023/08/31 03:27:22;;;;;;;18.00;11.57;;;;;;;13.44;76.66;99917.81;4969070;28;20034;-76
2023/08/31 03:29:48;;;;;;;20.73;11.98;;;;;;;13.34;76.56;99896.19;4979610;28;20057;-74
2023/08/31 03:32:14;;;;;;;20.80;11.40;;;;;;;13.48;76.58;99909.88;4985716;28;20042;-74
2023/08/31 03:34:42;;;;;;;33.03;12.65;;;;;;;13.55;76.78;99908.88;4951928;28;20086;-73
2023/08/31 03:37:09;;;;;;;22.58;12.55;;;;;;;13.59;76.50;99914.88;4985440;28;20063;-73
2023/08/31 03:39:37;;;;;;;18.52;11.32;;;;;;;13.67;76.47;99920.84;4969625;28;20322;-75
2023/08/31 03:42:03;;;;;;;23.75;12.73;;;;;;;13.68;76.33;99911.22;4954828;28;20102;-82
2023/08/31 03:44:29;;;;;;;24.60;12.10;;;;;;;13.16;76.14;99838.13;4971030;28;20346;-80
2023/08/31 03:46:56;;;;;;;20.35;11.48;;;;;;;13.95;76.76;99935.09;4987095;28;20035;-77
2023/08/31 03:49:22;;;;;;;20.85;11.25;;;;;;;13.99;76.87;99905.38;4954609;28;21402;-80
2023/08/31 03:51:48;;;;;;;28.83;12.13;;;;;;;14.14;76.41;99907.66;4971720;28;20049;-77
2023/08/31 03:54:14;;;;;;;22.77;11.10;;;;;;;14.05;76.02;99879.06;4973473;28;20056;-82
2023/08/31 03:56:41;;;;;;;22.63;12.07;;;;;;;14.39;75.88;99916.69;4972823;28;20142;-83
2023/08/31 03:59:07;;;;;;;22.38;11.95;;;;;;;14.64;75.65;99934.47;4974482;28;20043;-83
2023/08/31 04:01:33;;;;;;;20.92;10.65;;;;;;;14.41;75.47;99873.03;4958328;28;20078;-77
2023/08/31 04:03:59;;;;;;;20.58;10.20;;;;;;;14.74;75.70;99912.44;4967504;28;20038;-79
2023/08/31 04:06:28;;;;;;;20.33;10.52;;;;;;;15.04;75.24;99929.16;4982983;28;20038;-79
2023/08/31 04:08:55;;;;;;;22.40;10.35;;;;;;;15.05;74.84;99888.94;4963388;28;20062;-78
2023/08/31 04:11:22;;;;;;;19.10;10.48;;;;;;;15.61;75.18;99929.41;4971823;28;20089;-79
2023/08/31 04:13:48;;;;;;;17.38;10.07;;;;;;;15.47;74.74;99852.88;4971740;28;20042;-77
2023/08/31 04:16:14;;;;;;;22.25;10.07;;;;;;;16.07;73.73;99926.41;4986618;28;20042;-80
2023/08/31 04:18:42;;;;;;;18.73;9.82;;;;;;;16.06;73.41;99914.19;4978827;28;20043;-90
2023/08/31 04:21:09;;;;;;;19.30;9.50;;;;;;;16.25;73.36;99944.22;4990042;28;20047;-90
2023/08/31 04:23:38;;;;;;;17.80;9.15;;;;;;;16.06;73.02;99873.06;4991148;28;20521;-90
2023/08/31 04:26:12;;;;;;;16.30;9.27;;;;;;;16.06;72.44;99843.31;4971033;28;20042;-85
2023/08/31 04:28:42;;;;;;;20.42;9.25;;;;;;;16.39;72.31;99838.75;5005583;28;20050;-91
2023/08/31 04:31:08;;;;;;;15.75;9.45;;;;;;;17.24;71.77;99948.13;4978857;28;20466;-86
2023/08/31 04:33:36;;;;;;;18.02;8.98;;;;;;;17.41;71.12;99929.13;4982415;28;20042;-90
2023/08/31 04:36:04;;;;;;;14.63;8.35;;;;;;;17.52;69.68;99930.53;4984848;28;20042;-88
2023/08/31 04:38:38;;;;;;;12.20;8.88;;;;;;;17.71;69.84;99950.00;4969834;28;20054;-88
2023/08/31 04:41:06;;;;;;;15.20;9.75;;;;;;;17.48;67.63;99913.16;4986170;28;20062;-87
2023/08/31 04:43:33;;;;;;;12.88;9.00;;;;;;;17.84;68.78;99944.28;4986283;28;20047;-89
2023/08/31 04:46:03;;;;;;;15.07;9.38;;;;;;;18.00;68.27;99913.03;4952726;28;20046;-84
2023/08/31 04:48:32;;;;;;;18.85;9.18;;;;;;;18.30;67.04;99924.16;4975742;28;20038;-82
2023/08/31 04:50:59;;;;;;;14.38;9.35;;;;;;;18.18;66.27;99864.91;4975068;28;20102;-81
2023/08/31 04:53:25;;;;;;;17.50;9.13;;;;;;;18.83;66.26;99890.44;4974785;28;20034;-79
2023/08/31 04:55:51;;;;;;;18.35;9.85;;;;;;;19.27;65.61;99924.63;4974304;28;20050;-80
2023/08/31 04:58:17;;;;;;;16.60;9.05;;;;;;;19.24;64.95;99885.19;4975626;28;20050;-82
2023/08/31 05:00:44;;;;;;;16.65;9.50;;;;;;;19.63;63.34;99924.88;4976293;28;20500;-82
2023/08/31 05:03:10;;;;;;;22.95;10.05;;;;;;;19.57;63.70;99881.97;4999709;28;20085;-83
2023/08/31 05:05:38;;;;;;;20.65;9.27;;;;;;;20.10;62.30;99942.13;4996695;28;21491;-83
2023/08/31 05:08:05;;;;;;;18.25;9.45;;;;;;;20.48;62.55;99926.28;4966318;28;20039;-81
2023/08/31 05:10:32;;;;;;;18.30;9.07;;;;;;;21.04;61.95;99907.69;4962020;28;20066;-77
2023/08/31 05:12:58;;;;;;;19.67;8.65;;;;;;;22.18;60.29;99903.47;4972373;28;20579;-75
2023/08/31 05:15:27;;;;;;;15.32;9.35;;;;;;;22.32;57.70;99901.84;4954730;28;20078;-77
2023/08/31 05:17:54;;;;;;;18.52;8.98;;;;;;;22.07;57.33;99879.38;4989761;28;20123;-75
2023/08/31 05:20:22;;;;;;;17.70;9.45;;;;;;;22.25;56.69;99853.66;4972848;28;20516;-75
2023/08/31 05:22:48;;;;;;;15.38;8.95;;;;;;;23.44;56.17;99913.06;4970456;28;20181;-76
2023/08/31 05:25:14;;;;;;;16.58;8.45;;;;;;;24.64;56.28;99919.72;4973290;28;20097;-76
2023/08/31 05:27:49;;;;;;;14.10;8.10;;;;;;;26.03;52.61;99905.91;4972110;28;20173;-78
2023/08/31 05:30:15;;;;;;;17.60;8.50;;;;;;;26.52;50.78;99879.28;4969616;28;20126;-76
2023/08/31 05:32:41;;;;;;;18.08;7.80;;;;;;;27.36;49.06;99865.84;4957208;28;20144;-78
2023/08/31 05:35:09;;;;;;;17.40;8.23;;;;;;;28.68;47.26;99898.09;4951825;28;20055;-76
2023/08/31 05:37:36;;;;;;;20.38;8.13;;;;;;;29.65;44.81;99878.28;4973108;28;20101;-78
2023/08/31 05:40:06;;;;;;;18.48;8.52;;;;;;;30.60;42.31;99899.41;4972498;28;20145;-77
2023/08/31 05:42:32;;;;;;;18.38;7.75;;;;;;;31.71;40.53;99855.91;4982693;28;20043;-78
2023/08/31 05:44:59;;;;;;;14.43;7.22;;;;;;;32.55;37.39;99877.34;4958158;28;20509;-78
2023/08/31 05:47:25;;;;;;;17.02;8.32;;;;;;;32.47;36.28;99861.91;4993635;28;20065;-79
2023/08/31 05:49:52;;;;;;;16.27;7.90;;;;;;;31.69;34.12;99895.50;4974378;28;20101;-78
2023/08/31 05:52:18;;;;;;;14.35;7.00;;;;;;;31.56;35.77;99906.59;4956797;28;20050;-77
2023/08/31 05:54:44;;;;;;;15.70;7.32;;;;;;;30.96;35.19;99864.75;4970657;28;20062;-78
2023/08/31 05:57:11;;;;;;;17.33;7.30;;;;;;;32.15;34.73;99923.31;4971014;28;20042;-75
2023/08/31 05:59:37;;;;;;;15.00;7.50;;;;;;;32.83;34.02;99832.31;4966556;28;20039;-76
2023/08/31 06:02:04;;;;;;;10.40;6.88;;;;;;;33.31;32.90;99837.28;4957767;28;20049;-76
2023/08/31 06:04:31;;;;;;;12.88;7.50;;;;;;;34.68;32.01;99899.28;4947229;28;20409;-76
2023/08/31 06:06:57;;;;;;;15.55;7.85;;;;;;;35.77;31.16;99917.03;4967686;28;20051;-76
2023/08/31 06:09:24;;;;;;;15.38;8.07;;;;;;;36.61;28.14;99928.09;4989619;28;20037;-76
2023/08/31 06:11:50;;;;;;;10.23;7.10;;;;;;;36.92;28.29;99926.31;4971658;28;20058;-78
2023/08/31 06:14:16;;;;;;;11.32;7.45;;;;;;;37.36;27.93;99924.72;4957957;28;20073;-78
2023/08/31 06:16:42;;;;;;;15.27;7.60;;;;;;;37.78;27.18;99912.38;4959759;28;20049;-79
2023/08/31 06:19:08;;;;;;;15.50;7.40;;;;;;;38.33;26.77;99931.00;4975221;28;20048;-77
2023/08/31 06:21:35;;;;;;;13.43;7.93;;;;;;;38.12;25.33;99908.22;4980396;28;20108;-84
2023/08/31 06:24:01;;;;;;;15.35;8.00;;;;;;;38.91;25.20;99916.53;4982170;28;20577;-85
2023/08/31 06:26:29;;;;;;;15.05;7.70;;;;;;;39.81;24.34;99907.72;4983445;28;20047;-87
2023/08/31 06:28:55;;;;;;;16.90;7.63;;;;;;;40.17;24.01;99941.09;4961862;28;20038;-86
2023/08/31 06:31:22;;;;;;;12.73;7.03;;;;;;;40.96;23.15;99916.91;4973876;28;20039;-86
2023/08/31 06:33:48;;;;;;;12.13;7.18;;;;;;;41.45;21.12;99944.81;4982072;28;20070;-80
2023/08/31 06:36:17;;;;;;;11.02;7.15;;;;;;;41.57;21.82;99945.00;4982676;28;20046;-81
2023/08/31 06:38:44;;;;;;;16.73;7.00;;;;;;;42.03;20.77;99948.63;4962920;28;20035;-79
2023/08/31 06:41:10;;;;;;;12.25;7.20;;;;;;;41.69;21.04;99954.19;4958243;28;20061;-80
2023/08/31 06:43:37;;;;;;;15.85;6.88;;;;;;;41.88;21.08;99928.94;4989742;28;20046;-82
2023/08/31 06:46:03;;;;;;;13.20;6.72;;;;;;;42.81;20.73;99948.59;4978957;28;20519;-83
2023/08/31 06:48:29;;;;;;;17.42;7.45;;;;;;;43.09;19.95;99901.63;4977983;28;20046;-83
2023/08/31 06:50:55;;;;;;;11.00;7.05;;;;;;;43.25;18.92;99937.69;4980990;28;20066;-82
2023/08/31 06:53:22;;;;;;;12.10;6.38;;;;;;;41.78;20.51;99934.84;4966613;28;20043;-83
2023/08/31 06:55:48;;;;;;;16.20;6.40;;;;;;;41.64;20.72;99934.06;4976286;28;20038;-82
2023/08/31 06:58:14;;;;;;;9.57;5.57;;;;;;;41.57;19.70;99901.34;4957426;28;20105;-80
2023/08/31 07:00:58;;;;;;;8.18;5.07;;;;;;;42.54;19.66;99924.16;4995909;28;20105;-81
2023/08/31 07:03:24;;;;;;;7.38;5.32;;;;;;;43.28;18.71;99880.59;4976268;28;20610;-80
2023/08/31 07:05:50;;;;;;;6.68;4.85;;;;;;;43.94;18.27;99934.78;4957973;28;20061;-82
2023/08/31 07:08:16;;;;;;;6.45;5.28;;;;;;;43.06;17.93;99907.53;4968191;28;20042;-80
2023/08/31 07:10:42;;;;;;;7.75;5.22;;;;;;;41.19;19.65;99935.63;4961933;28;20053;-81
2023/08/31 07:13:08;;;;;;;6.32;4.80;;;;;;;40.81;20.05;99926.16;4977186;28;20101;-84
2023/08/31 07:15:35;;;;;;;5.68;4.80;;;;;;;41.12;20.02;99936.69;4960372;28;20412;-84
2023/08/31 07:18:01;;;;;;;5.30;4.80;;;;;;;41.36;19.01;99911.44;4995620;28;20042;-86
2023/08/31 07:20:27;;;;;;;9.43;5.40;;;;;;;42.44;18.58;99903.63;4963771;28;20046;-81
2023/08/31 07:22:54;;;;;;;5.65;4.53;;;;;;;43.66;18.35;99916.19;4973831;28;20413;-84
2023/08/31 07:25:23;;;;;;;9.95;4.85;;;;;;;44.09;17.71;99899.63;4994931;28;20598;-91
2023/08/31 07:27:52;;;;;;;8.32;4.80;;;;;;;45.36;17.24;99930.66;4991395;28;20500;-83
2023/08/31 07:30:26;;;;;;;5.75;4.57;;;;;;;46.29;16.88;99924.28;4975901;28;20040;-82
2023/08/31 07:32:53;;;;;;;7.03;5.10;;;;;;;46.75;15.25;99899.50;4941714;28;20053;-84
2023/08/31 07:35:19;;;;;;;6.32;5.28;;;;;;;45.79;15.47;99901.94;4952735;28;20098;-83
2023/08/31 07:37:45;;;;;;;4.80;4.28;;;;;;;45.78;16.05;99897.53;4974141;28;20042;-86
2023/08/31 07:40:12;;;;;;;6.10;5.40;;;;;;;44.24;16.28;99928.50;4976658;28;20446;-87
2023/08/31 07:42:38;;;;;;;7.57;5.60;;;;;;;42.30;17.92;99894.66;4959640;28;20054;-86
2023/08/31 07:45:08;;;;;;;6.28;4.75;;;;;;;42.48;18.19;99894.97;4974899;28;20374;-87
2023/08/31 07:47:38;;;;;;;7.95;5.13;;;;;;;43.58;17.88;99909.13;4973760;28;20047;-80
2023/08/31 07:50:08;;;;;;;5.30;4.78;;;;;;;44.39;17.41;99936.28;4986839;28;20038;-79
2023/08/31 07:52:40;;;;;;;11.80;5.15;;;;;;;44.17;15.74;99916.81;4988201;28;20046;-86
2023/08/31 07:55:09;;;;;;;6.82;4.60;;;;;;;43.16;17.75;99855.03;4974624;28;20046;-83
2023/08/31 07:57:35;;;;;;;7.82;4.93;;;;;;;43.52;17.30;99905.38;4954586;28;20039;-82
2023/08/31 08:00:02;;;;;;;5.07;4.57;;;;;;;43.71;17.30;99930.03;4967653;28;20046;-80
2023/08/31 08:02:39;;;;;;;8.52;4.95;;;;;;;43.61;17.12;99923.16;4973764;28;20074;-81
2023/08/31 08:05:06;;;;;;;10.95;5.43;;;;;;;42.63;17.96;99924.72;4973118;28;20113;-81
2023/08/31 08:07:32;;;;;;;6.55;4.57;;;;;;;43.13;17.21;99894.63;4972112;28;20038;-81
2023/08/31 08:09:59;;;;;;;9.38;4.75;;;;;;;44.01;16.17;99894.44;4972883;28;20409;-82
2023/08/31 08:12:26;;;;;;;6.35;4.90;;;;;;;43.67;16.15;99917.88;4985996;28;20077;-78
2023/08/31 08:14:52;;;;;;;6.25;5.30;;;;;;;43.56;16.82;99916.72;4965599;28;20119;-80
2023/08/31 08:17:19;;;;;;;6.00;5.15;;;;;;;44.32;16.11;99899.94;4965500;28;20133;-80
2023/08/31 08:19:46;;;;;;;5.55;5.03;;;;;;;43.94;16.45;99919.19;4989544;28;20405;-80
2023/08/31 08:22:13;;;;;;;7.05;5.00;;;;;;;42.97;17.05;99900.69;4960866;28;20047;-86
2023/08/31 08:24:46;;;;;;;5.20;4.60;;;;;;;44.15;16.84;99913.47;4975356;28;20046;-76
2023/08/31 08:27:27;;;;;;;7.43;5.10;;;;;;;45.21;14.90;99904.53;4989724;28;20042;-85
2023/08/31 08:29:53;;;;;;;6.03;4.82;;;;;;;44.54;15.56;99856.34;4962821;28;20449;-81
2023/08/31 08:32:19;;;;;;;5.57;4.55;;;;;;;43.03;15.96;99891.56;4976663;28;20042;-80
2023/08/31 08:34:46;;;;;;;6.68;4.72;;;;;;;42.42;16.90;99874.84;4975450;28;20082;-78
2023/08/31 08:37:12;;;;;;;6.80;5.40;;;;;;;43.24;17.19;99903.16;4959739;28;20073;-83
2023/08/31 08:39:38;;;;;;;5.10;4.60;;;;;;;43.51;17.07;99856.34;4976835;28;20053;-82
2023/08/31 08:42:09;;;;;;;7.13;5.30;;;;;;;44.33;15.53;99876.94;4978368;28;20077;-83
2023/08/31 08:44:37;;;;;;;7.90;5.28;;;;;;;44.03;16.47;99895.03;4992080;28;20035;-81
2023/08/31 08:47:04;;;;;;;11.05;5.70;;;;;;;44.52;16.07;99880.41;4996693;28;20047;-82
2023/08/31 08:49:31;;;;;;;7.30;4.72;;;;;;;44.06;16.37;99853.50;4977372;28;20042;-79
2023/08/31 08:51:59;;;;;;;5.80;5.07;;;;;;;44.25;16.33;99880.81;4963194;28;20050;-82
2023/08/31 08:54:27;;;;;;;11.82;5.13;;;;;;;44.94;15.71;99871.28;4986986;28;20789;-80
2023/08/31 08:56:55;;;;;;;6.00;4.43;;;;;;;45.32;15.18;99878.16;4971751;28;20053;-84
2023/08/31 08:59:21;;;;;;;5.93;4.80;;;;;;;45.77;14.71;99879.38;4977614;28;20070;-81
2023/08/31 09:01:48;;;;;;;7.30;4.88;;;;;;;46.60;14.50;99905.59;5001224;28;20062;-78
2023/08/31 09:04:14;;;;;;;7.95;5.05;;;;;;;44.91;14.52;99858.88;4979751;28;20049;-86
2023/08/31 09:06:40;;;;;;;5.80;4.72;;;;;;;43.39;15.72;99892.66;4982319;28;20074;-82
2023/08/31 09:09:10;;;;;;;5.13;4.65;;;;;;;43.09;16.74;99887.94;4972479;28;20089;-80
2023/08/31 09:11:36;;;;;;;;;;;;;;;43.92;16.06;99882.13;4970606;28;20436;-83
2023/08/31 09:14:16;;;;;;;6.72;5.38;;;;;;;43.78;15.80;99893.28;4994775;28;19921;-79
2023/08/31 09:16:49;;;;;;;7.10;4.70;;;;;;;44.09;15.57;99883.16;5000343;28;20038;-81
2023/08/31 09:19:20;;;;;;;8.77;4.90;;;;;;;42.85;16.61;99873.22;4983502;28;20074;-81
2023/08/31 09:21:48;;;;;;;6.88;4.78;;;;;;;43.72;16.01;99871.44;4975704;28;20041;-82
2023/08/31 09:24:14;;;;;;;6.25;4.40;;;;;;;44.07;14.98;99889.97;4978156;28;20562;-79
2023/08/31 09:26:47;;;;;;;6.50;4.50;;;;;;;43.80;15.34;99873.88;4957424;28;20034;-82
2023/08/31 09:29:15;;;;;;;6.13;4.30;;;;;;;43.91;15.96;99869.50;4960012;28;20682;-88
2023/08/31 09:31:45;;;;;;;7.18;4.22;;;;;;;45.28;14.78;99886.06;4955683;28;20044;-72
2023/08/31 09:34:11;;;;;;;10.15;5.28;;;;;;;43.54;15.43;99899.69;4967579;28;20058;-73
2023/08/31 09:36:38;;;;;;;5.18;4.68;;;;;;;42.55;16.53;99880.19;4985332;28;20492;-71
2023/08/31 09:39:05;;;;;;;5.15;4.20;;;;;;;41.61;16.61;99886.16;4972105;28;20129;-70
2023/08/31 09:41:32;;;;;;;8.73;4.63;;;;;;;41.17;16.98;99879.56;4989653;28;20085;-71
2023/08/31 09:44:16;;;;;;;7.40;5.78;;;;;;;41.48;17.44;99878.88;4967747;28;20042;-71
2023/08/31 09:46:43;;;;;;;5.47;4.88;;;;;;;42.50;16.51;99876.47;4969157;28;20145;-76
2023/08/31 09:49:13;;;;;;;6.65;4.30;;;;;;;42.89;16.37;99875.31;4972153;28;20061;-72
2023/08/31 09:51:41;;;;;;;6.50;4.95;;;;;;;43.64;15.92;99891.78;4969324;28;20505;-70
2023/08/31 09:54:09;;;;;;;8.48;4.65;;;;;;;45.03;14.64;99889.03;4969474;28;20047;-73
2023/08/31 09:56:37;;;;;;;5.55;4.68;;;;;;;45.12;14.46;99878.56;4990340;28;20043;-71
2023/08/31 09:59:03;;;;;;;5.47;4.10;;;;;;;45.43;13.98;99851.75;4986326;28;20121;-77
2023/08/31 10:01:29;;;;;;;7.60;4.70;;;;;;;45.25;13.49;99892.03;4971732;28;20039;-74
2023/08/31 10:03:56;;;;;;;5.50;4.30;;;;;;;44.48;14.69;99891.03;4970420;28;20501;-75
2023/08/31 10:06:22;;;;;;;7.10;4.50;;;;;;;44.07;14.40;99884.50;4986257;28;20073;-73
2023/08/31 10:08:48;;;;;;;5.60;4.30;;;;;;;43.15;15.85;99864.31;4970243;28;20053;-74
2023/08/31 10:11:16;;;;;;;7.40;4.90;;;;;;;42.36;15.71;99848.38;4964134;28;20050;-75
2023/08/31 10:13:43;;;;;;;5.45;4.22;;;;;;;41.65;16.72;99865.59;4972365;28;20050;-74
2023/08/31 10:16:11;;;;;;;7.07;4.70;;;;;;;41.81;17.19;99871.63;4971093;28;20046;-75
2023/08/31 10:18:37;;;;;;;5.40;4.65;;;;;;;42.56;16.44;99851.81;4970517;28;20130;-75
2023/08/31 10:21:03;;;;;;;5.43;4.45;;;;;;;42.49;16.62;99885.72;4980764;28;20042;-76
2023/08/31 10:23:30;;;;;;;8.57;4.65;;;;;;;42.02;17.19;99877.84;4978446;28;20140;-75
2023/08/31 10:25:55;;;;;;;9.10;5.22;;;;;;;41.53;16.78;99895.44;4955897;28;20084;-75
2023/08/31 10:28:23;;;;;;;4.50;3.90;;;;;;;40.98;17.17;99876.66;4977509;28;20138;-75
2023/08/31 10:31:04;;;;;;;6.00;4.20;;;;;;;41.63;16.43;99878.59;4992610;28;20125;-76
2023/08/31 10:33:35;;;;;;;8.35;4.95;;;;;;;42.21;16.84;99879.59;4986157;28;20085;-75
2023/08/31 10:36:01;;;;;;;5.90;4.05;;;;;;;42.53;16.25;99852.25;4970329;28;20078;-75
2023/08/31 10:38:30;;;;;;;5.93;4.00;;;;;;;43.12;15.83;99890.22;4969766;28;20046;-76
2023/08/31 10:41:06;;;;;;;8.30;4.68;;;;;;;40.88;16.25;99825.28;4951392;28;20054;-77
2023/08/31 10:43:52;;;;;;;5.18;4.18;;;;;;;39.84;17.60;99877.31;4950158;28;20105;-78
2023/08/31 10:46:30;;;;;;;4.45;4.00;;;;;;;38.32;18.79;99876.88;4971247;28;20101;-77
2023/08/31 10:49:09;;;;;;;8.10;4.30;;;;;;;37.25;19.37;99858.25;4970593;28;20089;-76
2023/08/31 10:51:37;;;;;;;5.72;4.15;;;;;;;35.83;20.95;99844.09;4971041;28;20042;-75
2023/08/31 10:54:10;;;;;;;7.72;4.90;;;;;;;34.84;22.00;99884.94;4971191;28;20042;-74
2023/08/31 10:57:05;;;;;;;6.25;4.15;;;;;;;33.56;24.02;99883.25;4970015;28;20368;-73
2023/08/31 10:59:46;;;;;;;6.97;4.70;;;;;;;33.21;24.32;99880.53;4967791;28;20046;-73
2023/08/31 11:02:37;;;;;;;5.38;4.50;;;;;;;32.44;24.64;99860.41;4970557;28;20454;-74
2023/08/31 11:05:18;;;;;;;7.40;4.50;;;;;;;31.97;26.16;99866.81;4963360;28;20615;-76
2023/08/31 11:07:49;;;;;;;8.10;4.50;;;;;;;31.76;26.93;99875.13;4984715;28;20043;-75
2023/08/31 11:10:23;;;;;;;5.47;4.90;;;;;;;31.21;27.53;99870.50;4968717;28;20035;-77
2023/08/31 11:12:54;;;;;;;6.25;4.80;;;;;;;30.88;28.48;99876.22;4984642;28;20454;-75
2023/08/31 11:15:22;;;;;;;6.60;4.63;;;;;;;30.36;28.99;99863.91;4969719;28;20034;-74
2023/08/31 11:17:52;;;;;;;9.05;4.63;;;;;;;30.31;29.34;99868.88;4954020;28;20042;-76
2023/08/31 11:20:20;;;;;;;7.28;4.38;;;;;;;30.31;29.39;99878.72;4985520;28;20477;-75
2023/08/31 11:22:51;;;;;;;6.80;4.38;;;;;;;30.14;30.01;99873.06;4971266;28;20069;-74
2023/08/31 11:25:17;;;;;;;6.03;4.18;;;;;;;30.11;30.01;99853.75;4952774;28;20044;-76
2023/08/31 11:28:05;;;;;;;8.07;4.70;;;;;;;29.84;30.52;99849.84;4953605;28;20122;-73
2023/08/31 11:30:32;;;;;;;6.30;4.47;;;;;;;29.65;31.18;99877.41;4980451;28;20046;-76
2023/08/31 11:33:03;;;;;;;6.25;4.57;;;;;;;29.46;30.91;99868.31;4964564;28;20046;-74